sensor_id;sensor_type;location;lat;lon;timestamp;P1;durP1;ratioP1;P2;durP2;ratioP2
79664;SDS011;69132;44.014;20.918;2023-04-24T00:02:12;16.33;;;10.15;;
79664;SDS011;69132;44.014;20.918;2023-04-24T00:04:38;15.23;;;9.80;;
79664;SDS011;69132;44.014;20.918;2023-04-24T00:07:11;16.75;;;11.20;;
79664;SDS011;69132;44.014;20.918;2023-04-24T00:09:38;16.15;;;10.90;;
79664;SDS011;69132;44.014;20.918;2023-04-24T00:12:04;14.50;;;10.48;;
79664;SDS011;69132;44.014;20.918;2023-04-24T00:14:30;15.00;;;10.32;;
79664;SDS011;69132;44.014;20.918;2023-04-24T00:16:56;16.13;;;10.07;;
79664;SDS011;69132;44.014;20.918;2023-04-24T00:19:24;15.70;;;10.18;;
79664;SDS011;69132;44.014;20.918;2023-04-24T00:21:50;14.70;;;9.93;;
79664;SDS011;69132;44.014;20.918;2023-04-24T00:24:17;13.05;;;8.55;;
79664;SDS011;69132;44.014;20.918;2023-04-24T00:26:43;10.35;;;7.90;;
79664;SDS011;69132;44.014;20.918;2023-04-24T00:29:09;9.02;;;7.18;;
79664;SDS011;69132;44.014;20.918;2023-04-24T00:31:35;11.35;;;8.10;;
79664;SDS011;69132;44.014;20.918;2023-04-24T00:34:01;8.75;;;7.03;;
79664;SDS011;69132;44.014;20.918;2023-04-24T00:36:28;10.18;;;6.68;;
79664;SDS011;69132;44.014;20.918;2023-04-24T00:38:56;10.00;;;5.90;;
79664;SDS011;69132;44.014;20.918;2023-04-24T00:41:22;6.13;;;5.18;;
79664;SDS011;69132;44.014;20.918;2023-04-24T00:43:50;7.53;;;5.07;;
79664;SDS011;69132;44.014;20.918;2023-04-24T00:46:16;8.38;;;5.20;;
79664;SDS011;69132;44.014;20.918;2023-04-24T00:48:42;8.18;;;5.20;;
79664;SDS011;69132;44.014;20.918;2023-04-24T00:51:09;8.00;;;5.55;;
79664;SDS011;69132;44.014;20.918;2023-04-24T00:53:35;5.82;;;4.70;;
79664;SDS011;69132;44.014;20.918;2023-04-24T00:56:02;9.13;;;6.07;;
79664;SDS011;69132;44.014;20.918;2023-04-24T00:58:28;9.45;;;5.97;;
79664;SDS011;69132;44.014;20.918;2023-04-24T01:00:56;6.73;;;5.27;;
79664;SDS011;69132;44.014;20.918;2023-04-24T01:03:24;8.73;;;5.80;;
79664;SDS011;69132;44.014;20.918;2023-04-24T01:05:51;7.95;;;5.13;;
79664;SDS011;69132;44.014;20.918;2023-04-24T01:08:17;7.18;;;5.78;;
79664;SDS011;69132;44.014;20.918;2023-04-24T01:10:44;8.30;;;5.95;;
79664;SDS011;69132;44.014;20.918;2023-04-24T01:13:11;7.60;;;4.90;;
79664;SDS011;69132;44.014;20.918;2023-04-24T01:15:39;6.60;;;5.20;;
79664;SDS011;69132;44.014;20.918;2023-04-24T01:18:05;6.60;;;4.93;;
79664;SDS011;69132;44.014;20.918;2023-04-24T01:20:31;6.15;;;5.05;;
79664;SDS011;69132;44.014;20.918;2023-04-24T01:22:58;7.05;;;5.13;;
79664;SDS011;69132;44.014;20.918;2023-04-24T01:25:25;6.45;;;4.78;;
79664;SDS011;69132;44.014;20.918;2023-04-24T01:27:51;5.97;;;5.38;;
79664;SDS011;69132;44.014;20.918;2023-04-24T01:30:17;7.90;;;5.68;;
79664;SDS011;69132;44.014;20.918;2023-04-24T01:32:43;8.35;;;7.22;;
79664;SDS011;69132;44.014;20.918;2023-04-24T01:35:10;7.05;;;6.35;;
79664;SDS011;69132;44.014;20.918;2023-04-24T01:37:36;8.07;;;5.18;;
79664;SDS011;69132;44.014;20.918;2023-04-24T01:40:04;7.38;;;5.78;;
79664;SDS011;69132;44.014;20.918;2023-04-24T01:42:30;10.27;;;6.97;;
79664;SDS011;69132;44.014;20.918;2023-04-24T01:44:56;8.95;;;6.72;;
79664;SDS011;69132;44.014;20.918;2023-04-24T01:47:24;9.60;;;7.47;;
79664;SDS011;69132;44.014;20.918;2023-04-24T01:52:31;13.05;;;8.48;;
79664;SDS011;69132;44.014;20.918;2023-04-24T01:55:02;11.27;;;8.18;;
79664;SDS011;69132;44.014;20.918;2023-04-24T01:57:29;12.60;;;10.18;;
79664;SDS011;69132;44.014;20.918;2023-04-24T01:59:55;14.02;;;8.40;;
79664;SDS011;69132;44.014;20.918;2023-04-24T02:02:21;10.77;;;8.07;;
79664;SDS011;69132;44.014;20.918;2023-04-24T02:04:55;7.90;;;6.45;;
79664;SDS011;69132;44.014;20.918;2023-04-24T02:07:22;7.50;;;5.95;;
79664;SDS011;69132;44.014;20.918;2023-04-24T02:09:49;6.60;;;5.65;;
79664;SDS011;69132;44.014;20.918;2023-04-24T02:12:15;6.93;;;6.00;;
79664;SDS011;69132;44.014;20.918;2023-04-24T02:14:42;6.43;;;5.40;;
79664;SDS011;69132;44.014;20.918;2023-04-24T02:17:09;7.47;;;5.53;;
79664;SDS011;69132;44.014;20.918;2023-04-24T02:19:38;6.72;;;5.35;;
79664;SDS011;69132;44.014;20.918;2023-04-24T02:22:06;8.43;;;5.93;;
79664;SDS011;69132;44.014;20.918;2023-04-24T02:24:33;6.50;;;5.78;;
79664;SDS011;69132;44.014;20.918;2023-04-24T02:27:00;8.25;;;5.70;;
79664;SDS011;69132;44.014;20.918;2023-04-24T02:29:28;7.00;;;5.70;;
79664;SDS011;69132;44.014;20.918;2023-04-24T02:31:54;6.88;;;5.15;;
79664;SDS011;69132;44.014;20.918;2023-04-24T02:34:20;5.97;;;4.38;;
79664;SDS011;69132;44.014;20.918;2023-04-24T02:36:51;4.97;;;4.47;;
79664;SDS011;69132;44.014;20.918;2023-04-24T02:39:20;6.75;;;5.15;;
79664;SDS011;69132;44.014;20.918;2023-04-24T02:41:46;6.57;;;5.00;;
79664;SDS011;69132;44.014;20.918;2023-04-24T02:44:12;6.07;;;4.75;;
79664;SDS011;69132;44.014;20.918;2023-04-24T02:46:38;6.97;;;5.07;;
79664;SDS011;69132;44.014;20.918;2023-04-24T02:49:07;9.88;;;5.38;;
79664;SDS011;69132;44.014;20.918;2023-04-24T02:51:33;7.00;;;5.30;;
79664;SDS011;69132;44.014;20.918;2023-04-24T02:54:00;6.95;;;5.38;;
79664;SDS011;69132;44.014;20.918;2023-04-24T02:56:26;5.78;;;4.90;;
79664;SDS011;69132;44.014;20.918;2023-04-24T02:58:53;7.10;;;4.97;;
79664;SDS011;69132;44.014;20.918;2023-04-24T03:01:20;7.97;;;5.20;;
79664;SDS011;69132;44.014;20.918;2023-04-24T03:03:46;7.75;;;5.63;;
79664;SDS011;69132;44.014;20.918;2023-04-24T03:06:12;8.88;;;6.60;;
79664;SDS011;69132;44.014;20.918;2023-04-24T03:08:38;7.28;;;5.50;;
79664;SDS011;69132;44.014;20.918;2023-04-24T03:11:05;10.02;;;7.10;;
79664;SDS011;69132;44.014;20.918;2023-04-24T03:13:31;15.32;;;8.07;;
79664;SDS011;69132;44.014;20.918;2023-04-24T03:15:58;9.30;;;6.88;;
79664;SDS011;69132;44.014;20.918;2023-04-24T03:18:24;10.50;;;6.78;;
79664;SDS011;69132;44.014;20.918;2023-04-24T03:20:50;8.32;;;7.15;;
79664;SDS011;69132;44.014;20.918;2023-04-24T03:23:16;8.85;;;6.80;;
79664;SDS011;69132;44.014;20.918;2023-04-24T03:25:42;9.38;;;7.28;;
79664;SDS011;69132;44.014;20.918;2023-04-24T03:28:09;9.75;;;7.28;;
79664;SDS011;69132;44.014;20.918;2023-04-24T03:30:35;9.30;;;6.78;;
79664;SDS011;69132;44.014;20.918;2023-04-24T03:33:01;9.10;;;7.57;;
79664;SDS011;69132;44.014;20.918;2023-04-24T03:35:27;8.85;;;6.30;;
79664;SDS011;69132;44.014;20.918;2023-04-24T03:37:53;15.13;;;8.10;;
79664;SDS011;69132;44.014;20.918;2023-04-24T03:40:20;9.02;;;6.80;;
79664;SDS011;69132;44.014;20.918;2023-04-24T03:42:46;8.75;;;6.60;;
79664;SDS011;69132;44.014;20.918;2023-04-24T03:45:12;8.65;;;6.82;;
79664;SDS011;69132;44.014;20.918;2023-04-24T03:47:40;10.02;;;6.63;;
79664;SDS011;69132;44.014;20.918;2023-04-24T03:50:06;8.80;;;6.15;;
79664;SDS011;69132;44.014;20.918;2023-04-24T03:52:32;6.57;;;5.97;;
79664;SDS011;69132;44.014;20.918;2023-04-24T03:54:58;8.98;;;7.07;;
79664;SDS011;69132;44.014;20.918;2023-04-24T03:57:24;9.68;;;7.30;;
79664;SDS011;69132;44.014;20.918;2023-04-24T03:59:50;17.85;;;12.00;;
79664;SDS011;69132;44.014;20.918;2023-04-24T04:02:19;10.20;;;7.93;;
79664;SDS011;69132;44.014;20.918;2023-04-24T04:04:45;13.73;;;8.50;;
79664;SDS011;69132;44.014;20.918;2023-04-24T04:07:11;13.23;;;9.88;;
79664;SDS011;69132;44.014;20.918;2023-04-24T04:12:09;11.88;;;8.18;;
79664;SDS011;69132;44.014;20.918;2023-04-24T04:14:35;11.40;;;7.28;;
79664;SDS011;69132;44.014;20.918;2023-04-24T04:17:01;13.27;;;8.02;;
79664;SDS011;69132;44.014;20.918;2023-04-24T04:19:27;11.82;;;7.13;;
79664;SDS011;69132;44.014;20.918;2023-04-24T04:21:53;11.20;;;7.72;;
79664;SDS011;69132;44.014;20.918;2023-04-24T04:24:21;8.70;;;6.60;;
79664;SDS011;69132;44.014;20.918;2023-04-24T04:26:49;10.83;;;7.03;;
79664;SDS011;69132;44.014;20.918;2023-04-24T04:29:17;11.70;;;7.80;;
79664;SDS011;69132;44.014;20.918;2023-04-24T04:31:44;7.80;;;7.00;;
79664;SDS011;69132;44.014;20.918;2023-04-24T04:34:10;10.13;;;7.07;;
79664;SDS011;69132;44.014;20.918;2023-04-24T04:36:37;9.80;;;7.97;;
79664;SDS011;69132;44.014;20.918;2023-04-24T04:39:05;10.13;;;8.05;;
79664;SDS011;69132;44.014;20.918;2023-04-24T04:41:31;10.18;;;7.10;;
79664;SDS011;69132;44.014;20.918;2023-04-24T04:44:12;10.73;;;7.82;;
79664;SDS011;69132;44.014;20.918;2023-04-24T04:46:39;10.75;;;7.70;;
79664;SDS011;69132;44.014;20.918;2023-04-24T04:49:06;7.38;;;6.63;;
79664;SDS011;69132;44.014;20.918;2023-04-24T04:51:34;9.05;;;7.55;;
79664;SDS011;69132;44.014;20.918;2023-04-24T04:54:02;11.52;;;7.93;;
79664;SDS011;69132;44.014;20.918;2023-04-24T04:56:28;11.88;;;9.07;;
79664;SDS011;69132;44.014;20.918;2023-04-24T04:58:54;12.43;;;9.20;;
79664;SDS011;69132;44.014;20.918;2023-04-24T05:01:20;11.20;;;8.75;;
79664;SDS011;69132;44.014;20.918;2023-04-24T05:03:48;11.80;;;8.27;;
79664;SDS011;69132;44.014;20.918;2023-04-24T05:06:14;12.18;;;9.30;;
79664;SDS011;69132;44.014;20.918;2023-04-24T05:08:41;15.20;;;9.27;;
79664;SDS011;69132;44.014;20.918;2023-04-24T05:11:10;14.20;;;8.85;;
79664;SDS011;69132;44.014;20.918;2023-04-24T05:13:39;15.02;;;8.93;;
79664;SDS011;69132;44.014;20.918;2023-04-24T05:16:05;13.70;;;8.73;;
79664;SDS011;69132;44.014;20.918;2023-04-24T05:18:32;12.18;;;8.23;;
79664;SDS011;69132;44.014;20.918;2023-04-24T05:20:59;11.27;;;8.65;;
79664;SDS011;69132;44.014;20.918;2023-04-24T05:23:26;11.48;;;8.90;;
79664;SDS011;69132;44.014;20.918;2023-04-24T05:25:52;10.95;;;8.35;;
79664;SDS011;69132;44.014;20.918;2023-04-24T05:28:18;14.35;;;7.93;;
79664;SDS011;69132;44.014;20.918;2023-04-24T05:30:44;11.77;;;7.82;;
79664;SDS011;69132;44.014;20.918;2023-04-24T05:33:12;13.70;;;8.90;;
79664;SDS011;69132;44.014;20.918;2023-04-24T05:35:39;12.63;;;8.40;;
79664;SDS011;69132;44.014;20.918;2023-04-24T05:38:10;11.52;;;8.23;;
79664;SDS011;69132;44.014;20.918;2023-04-24T05:40:38;14.50;;;9.32;;
79664;SDS011;69132;44.014;20.918;2023-04-24T05:43:04;11.77;;;8.23;;
79664;SDS011;69132;44.014;20.918;2023-04-24T05:45:30;10.63;;;8.05;;
79664;SDS011;69132;44.014;20.918;2023-04-24T05:47:56;12.13;;;8.32;;
79664;SDS011;69132;44.014;20.918;2023-04-24T05:50:24;10.68;;;8.77;;
79664;SDS011;69132;44.014;20.918;2023-04-24T05:52:51;13.73;;;9.65;;
79664;SDS011;69132;44.014;20.918;2023-04-24T05:55:19;14.38;;;10.43;;
79664;SDS011;69132;44.014;20.918;2023-04-24T05:57:45;13.60;;;9.38;;
79664;SDS011;69132;44.014;20.918;2023-04-24T06:00:12;16.48;;;10.10;;
79664;SDS011;69132;44.014;20.918;2023-04-24T06:02:38;13.20;;;9.07;;
79664;SDS011;69132;44.014;20.918;2023-04-24T06:05:04;14.77;;;9.30;;
79664;SDS011;69132;44.014;20.918;2023-04-24T06:07:33;15.93;;;9.68;;
79664;SDS011;69132;44.014;20.918;2023-04-24T06:09:59;10.27;;;8.38;;
79664;SDS011;69132;44.014;20.918;2023-04-24T06:12:26;13.10;;;9.93;;
79664;SDS011;69132;44.014;20.918;2023-04-24T06:17:51;11.70;;;7.95;;
79664;SDS011;69132;44.014;20.918;2023-04-24T06:20:17;10.57;;;8.23;;
79664;SDS011;69132;44.014;20.918;2023-04-24T06:25:28;11.32;;;7.32;;
79664;SDS011;69132;44.014;20.918;2023-04-24T06:27:55;11.60;;;7.80;;
79664;SDS011;69132;44.014;20.918;2023-04-24T06:30:28;10.52;;;8.20;;
79664;SDS011;69132;44.014;20.918;2023-04-24T06:32:56;9.90;;;7.70;;
79664;SDS011;69132;44.014;20.918;2023-04-24T06:35:22;12.68;;;7.75;;
79664;SDS011;69132;44.014;20.918;2023-04-24T06:37:48;12.02;;;8.10;;
79664;SDS011;69132;44.014;20.918;2023-04-24T06:40:15;11.68;;;6.72;;
79664;SDS011;69132;44.014;20.918;2023-04-24T06:42:43;12.75;;;8.30;;
79664;SDS011;69132;44.014;20.918;2023-04-24T06:45:09;13.30;;;7.28;;
79664;SDS011;69132;44.014;20.918;2023-04-24T06:47:36;8.43;;;6.55;;
79664;SDS011;69132;44.014;20.918;2023-04-24T06:50:03;10.25;;;7.60;;
79664;SDS011;69132;44.014;20.918;2023-04-24T06:52:31;8.85;;;7.88;;
79664;SDS011;69132;44.014;20.918;2023-04-24T06:55:02;12.20;;;8.07;;
79664;SDS011;69132;44.014;20.918;2023-04-24T06:57:28;9.40;;;6.75;;
79664;SDS011;69132;44.014;20.918;2023-04-24T06:59:54;8.63;;;6.47;;
79664;SDS011;69132;44.014;20.918;2023-04-24T07:02:22;10.93;;;6.82;;
79664;SDS011;69132;44.014;20.918;2023-04-24T07:04:48;9.95;;;6.18;;
79664;SDS011;69132;44.014;20.918;2023-04-24T07:07:14;9.05;;;6.63;;
79664;SDS011;69132;44.014;20.918;2023-04-24T07:09:41;15.20;;;7.03;;
79664;SDS011;69132;44.014;20.918;2023-04-24T07:12:08;10.75;;;6.13;;
79664;SDS011;69132;44.014;20.918;2023-04-24T07:14:39;10.27;;;6.85;;
79664;SDS011;69132;44.014;20.918;2023-04-24T07:17:05;11.00;;;6.70;;
79664;SDS011;69132;44.014;20.918;2023-04-24T07:19:35;9.27;;;6.32;;
79664;SDS011;69132;44.014;20.918;2023-04-24T07:22:01;7.53;;;5.53;;
79664;SDS011;69132;44.014;20.918;2023-04-24T07:24:29;8.50;;;6.10;;
79664;SDS011;69132;44.014;20.918;2023-04-24T07:26:57;7.75;;;5.72;;
79664;SDS011;69132;44.014;20.918;2023-04-24T07:29:24;12.00;;;7.00;;
79664;SDS011;69132;44.014;20.918;2023-04-24T07:31:53;18.45;;;6.78;;
79664;SDS011;69132;44.014;20.918;2023-04-24T07:34:22;9.20;;;6.40;;
79664;SDS011;69132;44.014;20.918;2023-04-24T07:36:48;8.77;;;5.93;;
79664;SDS011;69132;44.014;20.918;2023-04-24T07:39:17;10.63;;;6.35;;
79664;SDS011;69132;44.014;20.918;2023-04-24T07:41:43;9.32;;;6.25;;
79664;SDS011;69132;44.014;20.918;2023-04-24T07:44:10;12.20;;;5.88;;
79664;SDS011;69132;44.014;20.918;2023-04-24T07:46:36;11.95;;;7.18;;
79664;SDS011;69132;44.014;20.918;2023-04-24T07:49:03;9.05;;;6.00;;
79664;SDS011;69132;44.014;20.918;2023-04-24T07:51:30;8.25;;;6.00;;
79664;SDS011;69132;44.014;20.918;2023-04-24T07:54:03;8.65;;;6.00;;
79664;SDS011;69132;44.014;20.918;2023-04-24T07:56:29;9.90;;;5.63;;
79664;SDS011;69132;44.014;20.918;2023-04-24T07:58:56;10.23;;;6.10;;
79664;SDS011;69132;44.014;20.918;2023-04-24T08:01:22;8.75;;;6.13;;
79664;SDS011;69132;44.014;20.918;2023-04-24T08:03:48;7.93;;;5.18;;
79664;SDS011;69132;44.014;20.918;2023-04-24T08:06:15;9.35;;;5.78;;
79664;SDS011;69132;44.014;20.918;2023-04-24T08:08:41;7.50;;;5.30;;
79664;SDS011;69132;44.014;20.918;2023-04-24T08:11:07;7.50;;;5.70;;
79664;SDS011;69132;44.014;20.918;2023-04-24T08:13:34;9.98;;;5.63;;
79664;SDS011;69132;44.014;20.918;2023-04-24T08:16:00;8.23;;;5.60;;
79664;SDS011;69132;44.014;20.918;2023-04-24T08:18:27;9.70;;;6.00;;
79664;SDS011;69132;44.014;20.918;2023-04-24T08:20:53;8.82;;;5.25;;
79664;SDS011;69132;44.014;20.918;2023-04-24T08:23:19;7.75;;;5.60;;
79664;SDS011;69132;44.014;20.918;2023-04-24T08:25:46;5.38;;;4.78;;
79664;SDS011;69132;44.014;20.918;2023-04-24T08:28:12;6.22;;;5.38;;
79664;SDS011;69132;44.014;20.918;2023-04-24T08:30:45;7.53;;;5.03;;
79664;SDS011;69132;44.014;20.918;2023-04-24T08:33:11;7.13;;;5.60;;
79664;SDS011;69132;44.014;20.918;2023-04-24T08:35:37;6.30;;;5.50;;
79664;SDS011;69132;44.014;20.918;2023-04-24T08:38:03;8.48;;;5.78;;
79664;SDS011;69132;44.014;20.918;2023-04-24T08:40:30;6.88;;;4.95;;
79664;SDS011;69132;44.014;20.918;2023-04-24T08:42:59;7.03;;;5.50;;
79664;SDS011;69132;44.014;20.918;2023-04-24T08:45:26;7.03;;;4.65;;
79664;SDS011;69132;44.014;20.918;2023-04-24T08:47:53;6.30;;;4.30;;
79664;SDS011;69132;44.014;20.918;2023-04-24T08:50:22;4.88;;;4.28;;
79664;SDS011;69132;44.014;20.918;2023-04-24T08:52:49;7.90;;;4.43;;
79664;SDS011;69132;44.014;20.918;2023-04-24T08:55:16;6.33;;;4.50;;
79664;SDS011;69132;44.014;20.918;2023-04-24T08:57:45;6.35;;;4.78;;
79664;SDS011;69132;44.014;20.918;2023-04-24T09:00:13;8.57;;;4.28;;
79664;SDS011;69132;44.014;20.918;2023-04-24T09:02:41;8.30;;;4.15;;
79664;SDS011;69132;44.014;20.918;2023-04-24T09:05:08;5.30;;;3.83;;
79664;SDS011;69132;44.014;20.918;2023-04-24T09:07:35;6.85;;;3.70;;
79664;SDS011;69132;44.014;20.918;2023-04-24T09:10:03;4.97;;;4.40;;
79664;SDS011;69132;44.014;20.918;2023-04-24T09:12:34;4.32;;;3.60;;
79664;SDS011;69132;44.014;20.918;2023-04-24T09:15:00;4.70;;;3.35;;
79664;SDS011;69132;44.014;20.918;2023-04-24T09:17:30;6.10;;;4.55;;
79664;SDS011;69132;44.014;20.918;2023-04-24T09:19:56;4.88;;;3.30;;
79664;SDS011;69132;44.014;20.918;2023-04-24T09:22:22;7.60;;;4.30;;
79664;SDS011;69132;44.014;20.918;2023-04-24T09:24:51;6.93;;;4.57;;
79664;SDS011;69132;44.014;20.918;2023-04-24T09:27:25;4.28;;;3.42;;
79664;SDS011;69132;44.014;20.918;2023-04-24T09:29:54;4.70;;;3.60;;
79664;SDS011;69132;44.014;20.918;2023-04-24T09:32:23;4.28;;;3.30;;
79664;SDS011;69132;44.014;20.918;2023-04-24T09:35:09;3.90;;;2.80;;
79664;SDS011;69132;44.014;20.918;2023-04-24T09:37:46;4.82;;;3.67;;
79664;SDS011;69132;44.014;20.918;2023-04-24T09:40:20;3.03;;;2.72;;
79664;SDS011;69132;44.014;20.918;2023-04-24T09:42:56;3.40;;;2.53;;
79664;SDS011;69132;44.014;20.918;2023-04-24T09:45:35;6.22;;;3.40;;
79664;SDS011;69132;44.014;20.918;2023-04-24T09:48:01;4.22;;;2.72;;
79664;SDS011;69132;44.014;20.918;2023-04-24T09:50:29;3.50;;;2.45;;
79664;SDS011;69132;44.014;20.918;2023-04-24T09:53:01;3.60;;;2.45;;
79664;SDS011;69132;44.014;20.918;2023-04-24T09:57:57;4.65;;;2.70;;
79664;SDS011;69132;44.014;20.918;2023-04-24T10:00:25;5.47;;;3.55;;
79664;SDS011;69132;44.014;20.918;2023-04-24T10:05:28;5.68;;;3.25;;
79664;SDS011;69132;44.014;20.918;2023-04-24T10:10:27;4.88;;;3.60;;
79664;SDS011;69132;44.014;20.918;2023-04-24T10:12:54;5.90;;;4.70;;
79664;SDS011;69132;44.014;20.918;2023-04-24T10:15:20;4.40;;;3.33;;
79664;SDS011;69132;44.014;20.918;2023-04-24T10:17:49;5.50;;;3.78;;
79664;SDS011;69132;44.014;20.918;2023-04-24T10:20:21;6.93;;;4.47;;
79664;SDS011;69132;44.014;20.918;2023-04-24T10:22:48;6.15;;;3.88;;
79664;SDS011;69132;44.014;20.918;2023-04-24T10:25:21;3.83;;;3.35;;
79664;SDS011;69132;44.014;20.918;2023-04-24T10:27:48;5.78;;;3.00;;
79664;SDS011;69132;44.014;20.918;2023-04-24T10:30:15;3.47;;;3.17;;
79664;SDS011;69132;44.014;20.918;2023-04-24T10:32:41;4.80;;;3.35;;
79664;SDS011;69132;44.014;20.918;2023-04-24T10:35:08;4.35;;;3.28;;
79664;SDS011;69132;44.014;20.918;2023-04-24T10:37:40;4.32;;;3.08;;
79664;SDS011;69132;44.014;20.918;2023-04-24T10:40:08;4.55;;;2.97;;
79664;SDS011;69132;44.014;20.918;2023-04-24T10:45:21;5.07;;;3.20;;
79664;SDS011;69132;44.014;20.918;2023-04-24T10:47:52;3.97;;;3.17;;
79664;SDS011;69132;44.014;20.918;2023-04-24T10:50:18;5.32;;;3.20;;
79664;SDS011;69132;44.014;20.918;2023-04-24T10:52:47;3.30;;;3.00;;
79664;SDS011;69132;44.014;20.918;2023-04-24T10:55:16;3.60;;;2.70;;
79664;SDS011;69132;44.014;20.918;2023-04-24T10:58:01;6.13;;;2.90;;
79664;SDS011;69132;44.014;20.918;2023-04-24T11:00:28;3.85;;;2.90;;
79664;SDS011;69132;44.014;20.918;2023-04-24T11:02:56;3.53;;;2.80;;
79664;SDS011;69132;44.014;20.918;2023-04-24T11:05:22;3.22;;;2.83;;
79664;SDS011;69132;44.014;20.918;2023-04-24T11:08:15;5.38;;;2.95;;
79664;SDS011;69132;44.014;20.918;2023-04-24T11:10:44;3.88;;;3.13;;
79664;SDS011;69132;44.014;20.918;2023-04-24T11:13:15;3.20;;;2.80;;
79664;SDS011;69132;44.014;20.918;2023-04-24T11:15:42;7.32;;;3.38;;
79664;SDS011;69132;44.014;20.918;2023-04-24T11:18:17;3.85;;;2.95;;
79664;SDS011;69132;44.014;20.918;2023-04-24T11:20:44;6.25;;;3.00;;
79664;SDS011;69132;44.014;20.918;2023-04-24T11:23:11;6.10;;;2.80;;
79664;SDS011;69132;44.014;20.918;2023-04-24T11:25:38;3.83;;;2.78;;
79664;SDS011;69132;44.014;20.918;2023-04-24T11:28:04;4.22;;;2.95;;
79664;SDS011;69132;44.014;20.918;2023-04-24T11:30:31;7.60;;;4.97;;
79664;SDS011;69132;44.014;20.918;2023-04-24T11:33:01;2.53;;;1.90;;
79664;SDS011;69132;44.014;20.918;2023-04-24T11:35:34;2.50;;;1.55;;
79664;SDS011;69132;44.014;20.918;2023-04-24T11:38:05;2.28;;;1.92;;
79664;SDS011;69132;44.014;20.918;2023-04-24T11:40:32;5.30;;;1.90;;
79664;SDS011;69132;44.014;20.918;2023-04-24T11:42:59;4.45;;;3.45;;
79664;SDS011;69132;44.014;20.918;2023-04-24T11:45:28;12.07;;;10.80;;
79664;SDS011;69132;44.014;20.918;2023-04-24T11:47:55;5.85;;;3.13;;
79664;SDS011;69132;44.014;20.918;2023-04-24T11:50:30;4.07;;;2.90;;
79664;SDS011;69132;44.014;20.918;2023-04-24T11:52:59;5.53;;;4.10;;
79664;SDS011;69132;44.014;20.918;2023-04-24T11:55:26;3.47;;;2.50;;
79664;SDS011;69132;44.014;20.918;2023-04-24T11:57:55;12.50;;;8.27;;
79664;SDS011;69132;44.014;20.918;2023-04-24T12:03:03;4.25;;;3.42;;
79664;SDS011;69132;44.014;20.918;2023-04-24T12:05:30;13.73;;;9.70;;
79664;SDS011;69132;44.014;20.918;2023-04-24T12:07:58;8.38;;;5.43;;
79664;SDS011;69132;44.014;20.918;2023-04-24T12:10:25;6.65;;;3.97;;
79664;SDS011;69132;44.014;20.918;2023-04-24T12:12:52;5.07;;;3.55;;
79664;SDS011;69132;44.014;20.918;2023-04-24T12:15:19;8.82;;;3.50;;
79664;SDS011;69132;44.014;20.918;2023-04-24T12:17:45;17.10;;;5.22;;
79664;SDS011;69132;44.014;20.918;2023-04-24T12:20:12;10.45;;;4.07;;
79664;SDS011;69132;44.014;20.918;2023-04-24T12:25:06;8.00;;;5.13;;
79664;SDS011;69132;44.014;20.918;2023-04-24T12:27:35;9.27;;;5.10;;
79664;SDS011;69132;44.014;20.918;2023-04-24T12:30:03;8.82;;;4.90;;
79664;SDS011;69132;44.014;20.918;2023-04-24T12:32:29;7.53;;;4.70;;
79664;SDS011;69132;44.014;20.918;2023-04-24T12:34:55;6.28;;;4.55;;
79664;SDS011;69132;44.014;20.918;2023-04-24T12:37:25;8.00;;;5.32;;
79664;SDS011;69132;44.014;20.918;2023-04-24T12:42:29;7.03;;;4.72;;
79664;SDS011;69132;44.014;20.918;2023-04-24T12:44:56;7.20;;;4.80;;
79664;SDS011;69132;44.014;20.918;2023-04-24T12:47:24;7.07;;;4.85;;
79664;SDS011;69132;44.014;20.918;2023-04-24T12:49:50;6.82;;;5.55;;
79664;SDS011;69132;44.014;20.918;2023-04-24T12:52:17;6.55;;;5.05;;
79664;SDS011;69132;44.014;20.918;2023-04-24T12:54:45;6.87;;;4.60;;
79664;SDS011;69132;44.014;20.918;2023-04-24T12:57:11;8.55;;;4.45;;
79664;SDS011;69132;44.014;20.918;2023-04-24T12:59:40;6.47;;;4.30;;
79664;SDS011;69132;44.014;20.918;2023-04-24T13:02:08;6.57;;;4.03;;
79664;SDS011;69132;44.014;20.918;2023-04-24T13:04:35;7.38;;;5.80;;
79664;SDS011;69132;44.014;20.918;2023-04-24T13:07:01;8.18;;;5.45;;
79664;SDS011;69132;44.014;20.918;2023-04-24T13:09:27;6.68;;;5.07;;
79664;SDS011;69132;44.014;20.918;2023-04-24T13:11:54;7.43;;;5.20;;
79664;SDS011;69132;44.014;20.918;2023-04-24T13:14:21;9.05;;;6.07;;
79664;SDS011;69132;44.014;20.918;2023-04-24T13:16:48;10.20;;;8.00;;
79664;SDS011;69132;44.014;20.918;2023-04-24T13:19:15;10.63;;;7.68;;
79664;SDS011;69132;44.014;20.918;2023-04-24T13:21:41;8.77;;;6.80;;
79664;SDS011;69132;44.014;20.918;2023-04-24T13:24:07;10.13;;;7.05;;
79664;SDS011;69132;44.014;20.918;2023-04-24T13:26:33;10.52;;;7.32;;
79664;SDS011;69132;44.014;20.918;2023-04-24T13:28:59;8.18;;;6.13;;
79664;SDS011;69132;44.014;20.918;2023-04-24T13:31:25;8.68;;;6.05;;
79664;SDS011;69132;44.014;20.918;2023-04-24T13:33:52;10.32;;;7.32;;
79664;SDS011;69132;44.014;20.918;2023-04-24T13:36:20;8.57;;;6.63;;
79664;SDS011;69132;44.014;20.918;2023-04-24T13:38:46;4.95;;;4.30;;
79664;SDS011;69132;44.014;20.918;2023-04-24T13:41:12;6.38;;;4.82;;
79664;SDS011;69132;44.014;20.918;2023-04-24T13:43:38;8.10;;;5.47;;
79664;SDS011;69132;44.014;20.918;2023-04-24T13:46:07;6.43;;;5.03;;
79664;SDS011;69132;44.014;20.918;2023-04-24T13:48:33;9.85;;;6.03;;
79664;SDS011;69132;44.014;20.918;2023-04-24T13:51:00;7.30;;;5.53;;
79664;SDS011;69132;44.014;20.918;2023-04-24T13:53:26;6.32;;;4.88;;
79664;SDS011;69132;44.014;20.918;2023-04-24T13:55:52;6.82;;;4.63;;
79664;SDS011;69132;44.014;20.918;2023-04-24T13:58:18;6.43;;;5.13;;
79664;SDS011;69132;44.014;20.918;2023-04-24T14:00:45;8.90;;;6.07;;
79664;SDS011;69132;44.014;20.918;2023-04-24T14:03:11;7.15;;;5.15;;
79664;SDS011;69132;44.014;20.918;2023-04-24T14:05:37;4.80;;;4.30;;
79664;SDS011;69132;44.014;20.918;2023-04-24T14:08:04;5.18;;;4.13;;
79664;SDS011;69132;44.014;20.918;2023-04-24T14:10:31;6.65;;;3.78;;
79664;SDS011;69132;44.014;20.918;2023-04-24T14:12:57;5.53;;;4.72;;
79664;SDS011;69132;44.014;20.918;2023-04-24T14:15:23;6.20;;;4.45;;
79664;SDS011;69132;44.014;20.918;2023-04-24T14:17:50;6.85;;;5.90;;
79664;SDS011;69132;44.014;20.918;2023-04-24T14:20:16;4.47;;;4.05;;
79664;SDS011;69132;44.014;20.918;2023-04-24T14:22:43;6.75;;;4.95;;
79664;SDS011;69132;44.014;20.918;2023-04-24T14:25:11;8.73;;;5.75;;
79664;SDS011;69132;44.014;20.918;2023-04-24T14:27:38;6.22;;;5.05;;
79664;SDS011;69132;44.014;20.918;2023-04-24T14:30:05;8.48;;;5.35;;
79664;SDS011;69132;44.014;20.918;2023-04-24T14:32:31;8.27;;;6.00;;
79664;SDS011;69132;44.014;20.918;2023-04-24T14:34:58;18.15;;;14.82;;
79664;SDS011;69132;44.014;20.918;2023-04-24T14:43:26;7.35;;;5.80;;
79664;SDS011;69132;44.014;20.918;2023-04-24T14:45:59;6.20;;;4.90;;
79664;SDS011;69132;44.014;20.918;2023-04-24T14:48:25;7.90;;;6.32;;
79664;SDS011;69132;44.014;20.918;2023-04-24T14:50:52;8.25;;;6.40;;
79664;SDS011;69132;44.014;20.918;2023-04-24T14:53:18;7.72;;;6.72;;
79664;SDS011;69132;44.014;20.918;2023-04-24T14:55:46;8.30;;;5.72;;
79664;SDS011;69132;44.014;20.918;2023-04-24T14:58:12;8.15;;;6.30;;
79664;SDS011;69132;44.014;20.918;2023-04-24T15:00:38;9.75;;;6.32;;
79664;SDS011;69132;44.014;20.918;2023-04-24T15:03:04;8.40;;;6.00;;
79664;SDS011;69132;44.014;20.918;2023-04-24T15:05:32;7.50;;;5.78;;
79664;SDS011;69132;44.014;20.918;2023-04-24T15:07:58;6.90;;;4.55;;